Time;durP1;ratioP1;P1;durP2;ratioP2;P2;SDS_P1;SDS_P2;PMS_P1;PMS_P2;Temp;Humidity;BMP_temperature;BMP_pressure;BME280_temperature;BME280_humidity;BME280_pressure;Samples;Min_cycle;Max_cycle;Signal;HPM_P1;HPM_P2
2022/11/01 00:01:05;;;;;;;;;;;17.30;99.90;;;;;;5062279;28;19928;-81
2022/11/01 00:03:32;;;;;;;;;;;17.20;99.90;;;;;;5077103;28;19956;-81
2022/11/01 00:05:59;;;;;;;;;;;17.20;99.90;;;;;;5074438;28;19924;-79
2022/11/01 00:08:26;;;;;;;;;;;17.10;99.90;;;;;;5091507;28;19935;-80
2022/11/01 00:11:01;;;;;;;;;;;17.10;99.90;;;;;;5102480;28;19924;-80
2022/11/01 00:13:28;;;;;;;;;;;17.10;99.90;;;;;;5095038;28;19935;-81
2022/11/01 00:15:55;;;;;;;;;;;17.10;99.90;;;;;;5074369;28;19943;-80
2022/11/01 00:18:23;;;;;;;;;;;17.00;99.90;;;;;;5074405;28;19951;-81
2022/11/01 00:20:49;;;;;;;;;;;17.00;99.90;;;;;;5068995;28;20464;-82
2022/11/01 00:23:16;;;;;;;;;;;16.90;99.90;;;;;;5067685;28;19927;-81
2022/11/01 00:25:43;;;;;;;;;;;16.90;99.90;;;;;;5075221;28;20285;-81
2022/11/01 00:28:12;;;;;;;;;;;16.70;99.90;;;;;;5095510;28;20354;-79
2022/11/01 00:30:39;;;;;;;;;;;16.70;99.90;;;;;;5077555;28;19943;-79
2022/11/01 00:33:06;;;;;;;;;;;16.50;99.90;;;;;;5096980;28;19977;-83
2022/11/01 00:35:35;;;;;;;;;;;16.50;99.90;;;;;;5097000;28;20012;-80
2022/11/01 00:38:02;;;;;;;;;;;16.40;99.90;;;;;;5077088;28;19955;-79
2022/11/01 00:40:29;;;;;;;;;;;16.30;99.90;;;;;;5078304;28;19950;-81
2022/11/01 00:42:56;;;;;;;;;;;16.20;99.90;;;;;;5074887;28;19996;-80
2022/11/01 00:45:24;;;;;;;;;;;16.10;99.90;;;;;;5086844;28;19924;-80
2022/11/01 00:47:51;;;;;;;;;;;16.10;99.90;;;;;;5075450;28;19928;-80
2022/11/01 00:50:18;;;;;;;;;;;16.10;99.90;;;;;;5082376;28;19932;-80
2022/11/01 00:52:45;;;;;;;;;;;16.10;99.90;;;;;;5095729;28;20383;-80
2022/11/01 00:55:12;;;;;;;;;;;16.10;99.90;;;;;;5077651;28;20422;-80
2022/11/01 00:57:39;;;;;;;;;;;16.00;99.90;;;;;;5076348;28;20126;-81
2022/11/01 01:00:06;;;;;;;;;;;16.00;99.90;;;;;;5095309;28;20019;-80
2022/11/01 01:02:35;;;;;;;;;;;16.00;99.90;;;;;;5098833;28;19935;-81
2022/11/01 01:05:02;;;;;;;;;;;16.00;99.90;;;;;;5093518;28;20395;-80
2022/11/01 01:07:29;;;;;;;;;;;15.90;99.90;;;;;;5092358;28;19940;-81
2022/11/01 01:09:56;;;;;;;;;;;16.40;99.90;;;;;;5090198;28;20034;-82
2022/11/01 01:12:23;;;;;;;;;;;15.90;99.90;;;;;;5074852;28;19935;-81
2022/11/01 01:14:50;;;;;;;;;;;15.90;99.90;;;;;;5095402;28;20362;-81
2022/11/01 01:17:17;;;;;;;;;;;15.90;99.90;;;;;;5079653;28;19932;-81
2022/11/01 01:19:47;;;;;;;;;;;15.90;99.90;;;;;;5083868;28;19928;-81
2022/11/01 01:22:14;;;;;;;;;;;16.00;99.90;;;;;;5094059;28;19924;-82
2022/11/01 01:24:44;;;;;;;;;;;16.00;99.90;;;;;;5094788;28;19947;-80
2022/11/01 01:27:11;;;;;;;;;;;16.10;99.90;;;;;;5096185;28;20421;-80
2022/11/01 01:29:40;;;;;;;;;;;16.10;99.90;;;;;;5092985;28;19963;-80
2022/11/01 01:32:07;;;;;;;;;;;16.10;99.90;;;;;;5093585;28;19938;-82
2022/11/01 01:34:34;;;;;;;;;;;16.10;99.90;;;;;;5091464;28;19974;-80
2022/11/01 01:37:03;;;;;;;;;;;16.20;99.90;;;;;;5087711;28;19971;-81
2022/11/01 01:39:30;;;;;;;;;;;16.20;99.90;;;;;;5076186;28;19924;-81
2022/11/01 01:41:57;;;;;;;;;;;16.20;99.90;;;;;;5075560;28;19988;-82
2022/11/01 01:44:43;;;;;;;;;;;16.30;99.90;;;;;;5074283;28;19924;-81
2022/11/01 01:47:12;;;;;;;;;;;16.30;99.90;;;;;;5081992;28;19931;-80
2022/11/01 01:49:39;;;;;;;;;;;16.30;99.90;;;;;;5076230;28;19928;-80
2022/11/01 01:52:08;;;;;;;;;;;16.40;99.90;;;;;;5074385;28;19975;-81
2022/11/01 01:54:35;;;;;;;;;;;16.40;99.90;;;;;;5085964;28;19950;-81
2022/11/01 01:57:02;;;;;;;;;;;16.40;99.90;;;;;;5082425;28;19928;-81
2022/11/01 01:59:29;;;;;;;;;;;16.40;99.90;;;;;;5094463;28;19940;-82
2022/11/01 02:01:57;;;;;;;;;;;16.40;99.90;;;;;;5084332;28;19928;-82
2022/11/01 02:04:27;;;;;;;;;;;16.40;99.90;;;;;;5085175;28;19927;-81
2022/11/01 02:06:54;;;;;;;;;;;16.50;99.90;;;;;;5075363;28;19963;-82
2022/11/01 02:09:23;;;;;;;;;;;16.50;99.90;;;;;;5078222;28;19924;-82
2022/11/01 02:11:50;;;;;;;;;;;16.50;99.90;;;;;;5080556;28;19950;-83
2022/11/01 02:14:17;;;;;;;;;;;16.50;99.90;;;;;;5077013;28;19928;-81
2022/11/01 02:16:52;;;;;;;;;;;16.50;99.90;;;;;;5069764;28;20281;-80
2022/11/01 02:19:32;;;;;;;;;;;16.50;99.90;;;;;;5069786;28;19928;-81
2022/11/01 02:22:03;;;;;;;;;;;16.50;99.90;;;;;;5091451;28;19935;-81
2022/11/01 02:24:39;;;;;;;;;;;16.50;99.90;;;;;;5078782;28;19929;-81
2022/11/01 02:27:13;;;;;;;;;;;16.50;99.90;;;;;;5077406;28;20370;-80
2022/11/01 02:30:10;;;;;;;;;;;16.50;99.90;;;;;;5077735;28;19935;-80
2022/11/01 02:32:46;;;;;;;;;;;16.50;99.90;;;;;;5083167;28;19924;-79
2022/11/01 02:35:16;;;;;;;;;;;16.50;99.90;;;;;;5092472;28;19928;-81
2022/11/01 02:37:47;;;;;;;;;;;16.50;99.90;;;;;;5070919;28;19928;-80
2022/11/01 02:40:16;;;;;;;;;;;16.40;99.90;;;;;;5083092;28;20403;-80
2022/11/01 02:42:48;;;;;;;;;;;16.40;99.90;;;;;;5062717;28;19943;-81
2022/11/01 02:45:28;;;;;;;;;;;16.40;99.90;;;;;;5073488;28;19931;-81
2022/11/01 02:47:57;;;;;;;;;;;16.40;99.90;;;;;;5063970;28;19936;-81
2022/11/01 02:50:26;;;;;;;;;;;16.30;99.90;;;;;;5073468;28;19931;-81
2022/11/01 02:52:53;;;;;;;;;;;16.30;99.90;;;;;;5070992;28;19982;-81
2022/11/01 02:55:29;;;;;;;;;;;16.20;99.90;;;;;;5074083;28;19940;-79
2022/11/01 02:57:58;;;;;;;;;;;16.20;99.90;;;;;;5074129;28;19925;-82
2022/11/01 03:00:27;;;;;;;;;;;16.20;99.90;;;;;;5074391;28;19936;-81
2022/11/01 03:02:56;;;;;;;;;;;16.10;99.90;;;;;;5090503;28;19924;-80
2022/11/01 03:05:27;;;;;;;;;;;16.10;99.90;;;;;;5084804;28;19931;-80
2022/11/01 03:07:56;;;;;;;;;;;16.10;99.90;;;;;;5074528;28;20562;-81
2022/11/01 03:10:26;;;;;;;;;;;16.10;99.90;;;;;;5073551;28;19928;-80
2022/11/01 03:12:58;;;;;;;;;;;16.00;99.90;;;;;;5083443;22;19936;-75
2022/11/01 03:15:26;;;;;;;;;;;16.00;99.90;;;;;;5046143;28;19939;-76
2022/11/01 03:17:56;;;;;;;;;;;15.90;99.90;;;;;;5057569;28;19988;-75
2022/11/01 03:20:24;;;;;;;;;;;15.80;99.90;;;;;;5063149;28;20027;-75
2022/11/01 03:22:55;;;;;;;;;;;15.80;99.90;;;;;;5062972;28;19925;-76
2022/11/01 03:25:39;;;;;;;;;;;15.80;99.90;;;;;;5057944;28;19932;-76
2022/11/01 03:28:09;;;;;;;;;;;15.70;99.90;;;;;;5027298;28;19948;-75
2022/11/01 03:30:37;;;;;;;;;;;15.80;99.90;;;;;;5045477;28;20008;-74
2022/11/01 03:33:04;;;;;;;;;;;15.70;99.90;;;;;;5052526;28;19951;-75
2022/11/01 03:35:34;;;;;;;;;;;15.80;99.90;;;;;;5051452;28;19928;-75
2022/11/01 03:38:05;;;;;;;;;;;15.80;99.90;;;;;;5046475;28;19925;-74
2022/11/01 03:40:32;;;;;;;;;;;15.80;99.90;;;;;;5049001;28;19929;-74
2022/11/01 03:43:02;;;;;;;;;;;15.80;99.90;;;;;;5051223;28;19928;-74
2022/11/01 03:45:30;;;;;;;;;;;15.80;99.90;;;;;;5049734;28;19932;-75
2022/11/01 03:47:56;;;;;;;;;;;15.80;99.90;;;;;;5046678;28;19987;-75
2022/11/01 03:50:24;;;;;;;;;;;15.90;99.90;;;;;;5063496;28;20261;-76
2022/11/01 03:52:51;;;;;;;;;;;15.90;99.90;;;;;;5051395;28;19928;-77
2022/11/01 03:55:20;;;;;;;;;;;16.00;99.90;;;;;;5058205;28;20020;-77
2022/11/01 03:57:47;;;;;;;;;;;16.00;99.90;;;;;;5030961;28;20401;-77
2022/11/01 04:00:15;;;;;;;;;;;16.10;99.90;;;;;;5055239;28;20270;-77
2022/11/01 04:02:42;;;;;;;;;;;16.10;99.90;;;;;;5052428;28;20262;-77
2022/11/01 04:05:10;;;;;;;;;;;16.10;99.90;;;;;;5059606;28;20310;-77
2022/11/01 04:07:36;;;;;;;;;;;16.20;99.90;;;;;;5036013;28;20372;-78
2022/11/01 04:10:03;;;;;;;;;;;16.20;99.90;;;;;;5054736;28;19998;-77
2022/11/01 04:12:32;;;;;;;;;;;16.20;99.90;;;;;;5051233;28;19928;-78
2022/11/01 04:20:38;;;;;;;;;;;16.30;99.90;;;;;;5013700;28;19925;-76
2022/11/01 04:23:05;;;;;;;;;;;16.30;99.90;;;;;;5043624;28;19935;-76
2022/11/01 04:25:33;;;;;;;;;;;16.30;99.90;;;;;;5058671;28;19936;-76
2022/11/01 04:28:01;;;;;;;;;;;16.30;99.90;;;;;;5055523;28;19929;-76
2022/11/01 04:30:28;;;;;;;;;;;16.30;99.90;;;;;;5048685;28;19932;-76
2022/11/01 04:32:55;;;;;;;;;;;16.20;99.90;;;;;;5058861;28;19924;-76
2022/11/01 04:35:22;;;;;;;;;;;16.20;99.90;;;;;;5056036;28;19925;-78
2022/11/01 04:37:55;;;;;;;;;;;16.20;99.90;;;;;;5048899;28;19936;-76
2022/11/01 04:40:22;;;;;;;;;;;16.20;99.90;;;;;;5044779;28;19925;-77
2022/11/01 04:42:49;;;;;;;;;;;16.10;99.90;;;;;;5035459;28;19929;-77
2022/11/01 04:45:17;;;;;;;;;;;16.10;99.90;;;;;;5054150;28;19986;-76
2022/11/01 04:47:51;;;;;;;;;;;16.10;99.90;;;;;;5062815;28;19929;-76
2022/11/01 04:50:18;;;;;;;;;;;16.10;99.90;;;;;;5036632;28;19990;-77
2022/11/01 04:52:45;;;;;;;;;;;16.10;99.90;;;;;;5050864;28;19976;-75
2022/11/01 04:55:11;;;;;;;;;;;16.10;99.90;;;;;;5031998;28;19925;-77
2022/11/01 04:57:38;;;;;;;;;;;16.10;99.90;;;;;;5042752;28;19952;-77
2022/11/01 05:00:06;;;;;;;;;;;16.10;99.90;;;;;;5050227;28;19949;-77
2022/11/01 05:02:34;;;;;;;;;;;16.10;99.90;;;;;;5057232;28;19981;-77
2022/11/01 05:05:00;;;;;;;;;;;16.10;99.90;;;;;;5059667;28;19929;-78
2022/11/01 05:07:28;;;;;;;;;;;16.20;99.90;;;;;;5058745;28;19955;-78
2022/11/01 05:09:55;;;;;;;;;;;16.20;99.90;;;;;;5054307;28;20393;-77
2022/11/01 05:12:21;;;;;;;;;;;16.20;99.90;;;;;;5048513;28;19928;-76
2022/11/01 05:14:49;;;;;;;;;;;16.20;99.90;;;;;;5057702;28;19931;-77
2022/11/01 05:17:15;;;;;;;;;;;16.20;99.90;;;;;;5058425;28;19929;-78
2022/11/01 05:19:43;;;;;;;;;;;16.30;99.90;;;;;;5057847;28;19928;-78
2022/11/01 05:22:10;;;;;;;;;;;16.30;99.90;;;;;;5059585;28;19998;-78
2022/11/01 05:24:37;;;;;;;;;;;16.30;99.90;;;;;;5065068;28;20035;-77
2022/11/01 05:27:04;;;;;;;;;;;16.30;99.90;;;;;;5025767;28;19929;-77
2022/11/01 05:29:31;;;;;;;;;;;16.30;99.90;;;;;;5055415;28;19935;-77
2022/11/01 05:31:57;;;;;;;;;;;16.30;99.90;;;;;;5052787;28;19952;-76
2022/11/01 05:34:24;;;;;;;;;;;16.30;99.90;;;;;;5051581;28;19925;-75
2022/11/01 05:36:53;;;;;;;;;;;16.40;99.90;;;;;;5053405;28;19935;-77
2022/11/01 05:39:19;;;;;;;;;;;16.40;99.90;;;;;;5055481;28;20007;-76
2022/11/01 05:41:46;;;;;;;;;;;16.40;99.90;;;;;;5049971;28;19933;-77
2022/11/01 05:44:13;;;;;;;;;;;16.40;99.90;;;;;;5050086;28;20578;-75
2022/11/01 05:46:40;;;;;;;;;;;16.40;99.90;;;;;;5047327;28;19943;-75
2022/11/01 05:49:07;;;;;;;;;;;16.40;99.90;;;;;;5027792;28;19936;-76
2022/11/01 05:51:34;;;;;;;;;;;16.40;99.90;;;;;;5053594;28;19928;-75
2022/11/01 05:54:02;;;;;;;;;;;16.30;99.90;;;;;;5057670;28;20856;-75
2022/11/01 05:56:29;;;;;;;;;;;16.30;99.90;;;;;;5054462;28;20038;-74
2022/11/01 05:58:55;;;;;;;;;;;16.30;99.90;;;;;;5047743;28;19931;-75
2022/11/01 06:01:22;;;;;;;;;;;16.30;99.90;;;;;;5043701;28;20406;-75
2022/11/01 06:03:49;;;;;;;;;;;16.40;99.90;;;;;;5053277;28;20022;-75
2022/11/01 06:06:16;;;;;;;;;;;16.40;99.90;;;;;;5047741;28;19929;-77
2022/11/01 06:08:42;;;;;;;;;;;16.40;99.90;;;;;;5039314;28;19937;-77
2022/11/01 06:11:11;;;;;;;;;;;16.40;99.90;;;;;;5049352;28;20386;-77
2022/11/01 06:13:38;;;;;;;;;;;16.40;99.90;;;;;;5056659;28;19933;-77
2022/11/01 06:16:05;;;;;;;;;;;16.40;99.90;;;;;;5050463;28;19967;-77
2022/11/01 06:18:32;;;;;;;;;;;16.30;99.90;;;;;;5046426;28;20019;-77
2022/11/01 06:20:59;;;;;;;;;;;16.30;99.90;;;;;;5034287;28;20020;-77
2022/11/01 06:23:26;;;;;;;;;;;16.20;99.90;;;;;;5061106;28;19993;-78
2022/11/01 06:25:59;;;;;;;;;;;16.20;99.90;;;;;;5041392;28;19932;-77
2022/11/01 06:28:27;;;;;;;;;;;16.10;99.90;;;;;;5051970;28;20043;-76
2022/11/01 06:30:53;;;;;;;;;;;16.00;99.90;;;;;;5049562;28;19928;-76
2022/11/01 06:33:21;;;;;;;;;;;15.90;99.90;;;;;;5054087;28;19962;-76
2022/11/01 06:35:47;;;;;;;;;;;15.80;99.90;;;;;;5049016;28;20001;-76
2022/11/01 06:38:14;;;;;;;;;;;15.70;99.90;;;;;;5054006;28;19931;-79
2022/11/01 06:40:41;;;;;;;;;;;15.60;99.90;;;;;;5030021;28;20262;-76
2022/11/01 06:43:07;;;;;;;;;;;15.60;99.90;;;;;;5029167;28;19936;-77
2022/11/01 06:45:36;;;;;;;;;;;15.50;99.90;;;;;;5033265;28;19929;-78
2022/11/01 06:48:03;;;;;;;;;;;15.50;99.90;;;;;;5052628;28;19936;-76
2022/11/01 06:50:30;;;;;;;;;;;15.40;99.90;;;;;;5056388;28;19924;-77
2022/11/01 06:52:57;;;;;;;;;;;15.40;99.90;;;;;;5041325;28;19932;-77
2022/11/01 06:55:24;;;;;;;;;;;15.30;99.90;;;;;;5049133;28;20074;-76
2022/11/01 06:57:54;;;;;;;;;;;15.30;99.90;;;;;;5057145;28;20019;-78
2022/11/01 07:00:21;;;;;;;;;;;15.20;99.90;;;;;;5059104;28;19929;-77
2022/11/01 07:02:56;;;;;;;;;;;15.20;99.90;;;;;;5037508;28;19928;-77
2022/11/01 07:05:23;;;;;;;;;;;16.20;99.90;;;;;;5031427;28;19936;-77
2022/11/01 07:07:51;;;;;;;;;;;15.10;99.90;;;;;;5047320;28;20340;-77
2022/11/01 07:10:18;;;;;;;;;;;15.10;99.90;;;;;;5050494;28;19935;-77
2022/11/01 07:12:45;;;;;;;;;;;14.90;99.90;;;;;;5033620;28;19948;-77
2022/11/01 07:15:12;;;;;;;;;;;14.90;99.90;;;;;;5059141;28;19932;-75
2022/11/01 07:17:38;;;;;;;;;;;14.80;99.90;;;;;;5054983;28;19937;-75
2022/11/01 07:20:07;;;;;;;;;;;14.70;99.90;;;;;;5062194;28;19935;-75
2022/11/01 07:22:34;;;;;;;;;;;14.60;99.90;;;;;;5051443;28;20012;-75
2022/11/01 07:25:01;;;;;;;;;;;14.60;99.90;;;;;;5053054;28;19937;-77
2022/11/01 07:27:28;;;;;;;;;;;14.50;99.90;;;;;;5050172;28;20001;-78
2022/11/01 07:29:54;;;;;;;;;;;14.50;99.90;;;;;;5046842;28;20254;-78
2022/11/01 07:32:21;;;;;;;;;;;14.50;99.90;;;;;;5043353;28;20001;-78
2022/11/01 07:34:48;;;;;;;;;;;14.50;99.90;;;;;;5053984;28;20647;-78
2022/11/01 07:37:16;;;;;;;;;;;14.60;99.90;;;;;;5039265;28;20412;-78
2022/11/01 07:39:43;;;;;;;;;;;14.60;99.90;;;;;;5058172;28;19932;-77
2022/11/01 07:42:09;;;;;;;;;;;14.60;99.90;;;;;;5045347;28;19933;-77
2022/11/01 07:44:36;;;;;;;;;;;14.70;99.90;;;;;;5063396;28;19928;-77
2022/11/01 07:47:03;;;;;;;;;;;15.00;99.90;;;;;;5052444;28;19929;-77
2022/11/01 07:49:30;;;;;;;;;;;15.40;99.90;;;;;;5059580;28;19959;-78
2022/11/01 07:51:56;;;;;;;;;;;15.70;99.90;;;;;;5051031;28;19929;-77
2022/11/01 07:54:25;;;;;;;;;;;16.30;99.90;;;;;;5062228;28;20673;-77
2022/11/01 07:56:51;;;;;;;;;;;16.40;99.90;;;;;;5052789;28;19993;-77
2022/11/01 07:59:18;;;;;;;;;;;16.60;99.90;;;;;;5052544;28;19929;-77
2022/11/01 08:01:44;;;;;;;;;;;16.80;99.90;;;;;;5031983;28;19932;-78
2022/11/01 08:04:11;;;;;;;;;;;17.00;99.90;;;;;;5055422;28;19929;-77
2022/11/01 08:06:38;;;;;;;;;;;17.20;99.90;;;;;;5054409;28;20020;-77
2022/11/01 08:09:05;;;;;;;;;;;17.20;99.90;;;;;;5032449;28;19940;-77
2022/11/01 08:11:33;;;;;;;;;;;17.30;99.90;;;;;;5052904;28;19928;-77
2022/11/01 08:13:59;;;;;;;;;;;17.30;99.90;;;;;;5050189;28;19937;-77
2022/11/01 08:16:26;;;;;;;;;;;17.40;99.90;;;;;;5055067;28;19944;-78
2022/11/01 08:18:53;;;;;;;;;;;17.30;99.90;;;;;;5054644;28;19996;-77
2022/11/01 08:21:20;;;;;;;;;;;17.40;99.90;;;;;;5053335;28;20321;-78
2022/11/01 08:23:47;;;;;;;;;;;17.40;99.90;;;;;;5057899;28;20362;-77
2022/11/01 08:26:14;;;;;;;;;;;17.40;99.90;;;;;;5047860;28;19925;-77
2022/11/01 08:28:42;;;;;;;;;;;17.40;99.90;;;;;;5060288;28;19928;-77
2022/11/01 08:31:09;;;;;;;;;;;17.30;99.90;;;;;;5057618;28;19935;-77
2022/11/01 08:33:36;;;;;;;;;;;17.30;99.90;;;;;;5037551;28;20573;-77
2022/11/01 08:36:03;;;;;;;;;;;17.30;99.90;;;;;;5060180;28;19953;-76
2022/11/01 08:38:32;;;;;;;;;;;17.20;99.90;;;;;;5063858;28;19939;-78
2022/11/01 08:41:01;;;;;;;;;;;17.10;99.90;;;;;;5039423;28;20415;-79
2022/11/01 08:43:28;;;;;;;;;;;17.00;99.90;;;;;;5037699;28;19986;-77
2022/11/01 08:45:57;;;;;;;;;;;16.80;99.90;;;;;;5027393;28;20007;-78
2022/11/01 08:48:24;;;;;;;;;;;16.70;99.90;;;;;;5053463;28;19924;-75
2022/11/01 08:50:51;;;;;;;;;;;16.50;99.90;;;;;;5054341;28;20282;-75
2022/11/01 08:53:18;;;;;;;;;;;16.30;99.90;;;;;;5050551;28;19985;-75
2022/11/01 08:55:45;;;;;;;;;;;16.30;99.90;;;;;;5057109;28;20407;-75
2022/11/01 08:58:11;;;;;;;;;;;16.20;99.90;;;;;;5027523;28;20275;-75
2022/11/01 09:00:38;;;;;;;;;;;16.20;99.90;;;;;;5042072;28;19936;-75
2022/11/01 09:03:06;;;;;;;;;;;16.20;99.90;;;;;;5040940;28;19940;-75
2022/11/01 09:05:33;;;;;;;;;;;16.20;99.90;;;;;;5052223;28;20026;-75
2022/11/01 09:08:00;;;;;;;;;;;16.20;99.90;;;;;;5038511;28;19929;-75
2022/11/01 09:10:28;;;;;;;;;;;16.20;99.90;;;;;;5046764;28;19932;-76
2022/11/01 09:12:54;;;;;;;;;;;16.30;99.90;;;;;;5047498;28;19928;-76
2022/11/01 09:15:21;;;;;;;;;;;16.30;99.90;;;;;;5047332;28;19928;-76
2022/11/01 09:17:48;;;;;;;;;;;16.30;99.90;;;;;;5033184;28;19929;-75
2022/11/01 09:20:16;;;;;;;;;;;16.40;99.90;;;;;;5049050;28;19929;-78
2022/11/01 09:22:43;;;;;;;;;;;16.50;99.90;;;;;;5038408;28;19940;-78
2022/11/01 09:25:11;;;;;;;;;;;16.50;99.90;;;;;;5050170;28;19929;-77
2022/11/01 09:27:38;;;;;;;;;;;16.60;99.90;;;;;;5034858;28;19972;-77
2022/11/01 09:30:05;;;;;;;;;;;16.70;99.90;;;;;;5026832;28;19925;-76
2022/11/01 09:32:31;;;;;;;;;;;16.70;99.90;;;;;;5027679;28;19983;-77
2022/11/01 09:34:59;;;;;;;;;;;16.70;99.90;;;;;;5049356;28;19925;-78
2022/11/01 09:37:27;;;;;;;;;;;16.80;99.90;;;;;;5034759;28;19935;-77
2022/11/01 09:39:54;;;;;;;;;;;16.90;99.90;;;;;;5052241;28;20273;-77
2022/11/01 09:42:23;;;;;;;;;;;16.90;99.90;;;;;;5044533;28;19924;-77
2022/11/01 09:44:52;;;;;;;;;;;17.00;99.90;;;;;;5035002;28;20021;-78
2022/11/01 09:47:21;;;;;;;;;;;17.00;99.90;;;;;;5049624;28;20262;-77
2022/11/01 09:49:49;;;;;;;;;;;17.10;99.90;;;;;;5056905;28;19960;-77
2022/11/01 09:52:19;;;;;;;;;;;17.30;99.90;;;;;;5043829;28;19932;-77
2022/11/01 09:54:48;;;;;;;;;;;17.30;99.90;;;;;;5047958;28;20408;-77
2022/11/01 09:57:19;;;;;;;;;;;17.40;99.90;;;;;;5049412;28;19944;-75
2022/11/01 09:59:47;;;;;;;;;;;17.40;99.90;;;;;;5052770;28;19979;-75
2022/11/01 10:02:25;;;;;;;;;;;17.50;99.90;;;;;;5051038;28;20301;-75
2022/11/01 10:05:00;;;;;;;;;;;17.50;99.90;;;;;;5046999;28;19968;-75
2022/11/01 10:07:31;;;;;;;;;;;17.60;99.90;;;;;;5080391;22;19924;-89
2022/11/01 10:10:05;;;;;;;;;;;18.90;99.90;;;;;;5101786;28;19953;-83
2022/11/01 10:12:37;;;;;;;;;;;17.60;99.90;;;;;;5112580;27;20017;-84
2022/11/01 10:15:16;;;;;;;;;;;17.70;99.90;;;;;;5078309;28;19931;-84
2022/11/01 10:17:48;;;;;;;;;;;17.70;99.90;;;;;;5105035;28;20022;-85
2022/11/01 10:20:15;;;;;;;;;;;17.80;99.90;;;;;;5110926;28;19935;-85
2022/11/01 10:22:43;;;;;;;;;;;17.90;99.90;;;;;;5079166;28;19931;-86
2022/11/01 10:25:18;;;;;;;;;;;18.00;99.90;;;;;;5081140;28;19924;-85
2022/11/01 10:27:46;;;;;;;;;;;18.00;99.90;;;;;;5086397;28;19970;-86
2022/11/01 10:30:15;;;;;;;;;;;18.10;99.90;;;;;;5096825;28;19924;-85
2022/11/01 10:32:45;;;;;;;;;;;18.20;99.90;;;;;;5107658;28;19983;-85
2022/11/01 10:35:14;;;;;;;;;;;18.30;99.90;;;;;;5103318;28;20367;-86
2022/11/01 10:37:45;;;;;;;;;;;18.40;99.90;;;;;;5114351;28;20393;-86
2022/11/01 10:40:15;;;;;;;;;;;18.40;99.90;;;;;;5104741;28;19941;-84
2022/11/01 10:42:44;;;;;;;;;;;18.50;99.90;;;;;;5105848;28;19928;-85
2022/11/01 10:45:34;;;;;;;;;;;18.60;99.90;;;;;;5099731;28;19935;-88
2022/11/01 10:48:01;;;;;;;;;;;18.60;99.90;;;;;;5090776;28;19928;-87
2022/11/01 10:50:29;;;;;;;;;;;18.70;99.90;;;;;;5082572;28;19928;-87
2022/11/01 10:52:59;;;;;;;;;;;18.80;99.90;;;;;;5084551;28;19934;-86
2022/11/01 10:55:29;;;;;;;;;;;18.80;99.90;;;;;;5104853;28;20064;-85
2022/11/01 10:57:59;;;;;;;;;;;18.80;99.90;;;;;;5121419;28;20508;-86
2022/11/01 11:00:26;;;;;;;;;;;18.90;99.90;;;;;;5101195;28;20435;-86
2022/11/01 11:02:55;;;;;;;;;;;17.60;99.90;;;;;;5103234;28;19942;-86
2022/11/01 11:05:23;;;;;;;;;;;18.90;99.90;;;;;;5101833;28;20197;-86
2022/11/01 11:07:50;;;;;;;;;;;19.00;99.90;;;;;;5102968;28;20003;-87
2022/11/01 11:10:19;;;;;;;;;;;19.00;99.90;;;;;;5095694;28;20400;-87
2022/11/01 11:12:50;;;;;;;;;;;19.10;99.90;;;;;;5093544;28;20005;-86
2022/11/01 11:15:19;;;;;;;;;;;19.10;99.90;;;;;;5090100;28;19964;-87
2022/11/01 11:17:49;;;;;;;;;;;19.20;99.90;;;;;;5102215;28;19992;-87
2022/11/01 11:20:21;;;;;;;;;;;19.20;99.90;;;;;;5105934;28;19984;-87
2022/11/01 11:22:48;;;;;;;;;;;19.20;99.90;;;;;;5091260;28;20218;-87
2022/11/01 11:25:17;;;;;;;;;;;19.30;99.90;;;;;;5111647;28;19924;-87
2022/11/01 11:27:46;;;;;;;;;;;19.50;99.90;;;;;;5093977;28;19928;-88
2022/11/01 11:30:27;;;;;;;;;;;19.60;99.90;;;;;;5099498;28;19924;-87
2022/11/01 11:32:54;;;;;;;;;;;19.60;99.90;;;;;;5122830;28;19924;-87
2022/11/01 11:35:22;;;;;;;;;;;19.60;99.90;;;;;;5113252;28;19924;-87
2022/11/01 11:37:49;;;;;;;;;;;;;;;;;;5102786;28;20453;-87
2022/11/01 11:40:18;;;;;;;;;;;19.80;99.90;;;;;;5107241;28;19931;-87
2022/11/01 11:42:47;;;;;;;;;;;19.80;99.90;;;;;;5089819;28;19924;-86
2022/11/01 11:45:21;;;;;;;;;;;19.80;99.90;;;;;;5092979;28;19928;-86
2022/11/01 11:47:47;;;;;;;;;;;19.80;99.90;;;;;;5092486;28;19943;-86
2022/11/01 11:50:32;;;;;;;;;;;19.80;99.90;;;;;;5116577;28;19931;-86
2022/11/01 11:53:01;;;;;;;;;;;19.80;99.90;;;;;;5088371;28;19932;-86
2022/11/01 11:55:34;;;;;;;;;;;19.80;99.90;;;;;;5082947;28;20003;-87
2022/11/01 11:58:04;;;;;;;;;;;19.80;99.90;;;;;;5100506;28;19928;-86
2022/11/01 12:00:37;;;;;;;;;;;19.80;99.90;;;;;;5101286;28;20388;-87
2022/11/01 12:03:05;;;;;;;;;;;19.80;99.90;;;;;;5090498;28;19924;-87
2022/11/01 12:05:33;;;;;;;;;;;19.70;99.90;;;;;;5097280;28;19941;-87
2022/11/01 12:08:00;;;;;;;;;;;19.70;99.90;;;;;;5112266;28;20022;-87
2022/11/01 12:10:32;;;;;;;;;;;19.70;99.90;;;;;;5113573;28;19959;-87
2022/11/01 12:12:59;;;;;;;;;;;19.70;99.90;;;;;;5083359;28;19938;-86
2022/11/01 12:15:29;;;;;;;;;;;19.70;99.90;;;;;;5080901;28;19927;-91
2022/11/01 12:18:07;;;;;;;;;;;19.70;99.90;;;;;;5089699;28;20041;-87
2022/11/01 12:20:37;;;;;;;;;;;19.60;99.90;;;;;;5104058;28;19928;-86
2022/11/01 12:23:12;;;;;;;;;;;19.60;99.90;;;;;;5092855;28;20022;-87
2022/11/01 12:25:42;;;;;;;;;;;19.60;99.90;;;;;;5103457;28;20034;-87
2022/11/01 12:28:15;;;;;;;;;;;19.60;99.90;;;;;;5089102;28;19931;-87
2022/11/01 12:30:44;;;;;;;;;;;18.70;99.90;;;;;;5116682;28;19930;-87
2022/11/01 12:33:15;;;;;;;;;;;19.40;99.90;;;;;;5103494;28;19912;-87
2022/11/01 12:35:44;;;;;;;;;;;19.50;99.90;;;;;;5111391;28;19927;-87
2022/11/01 12:38:25;;;;;;;;;;;19.50;99.90;;;;;;5111492;28;19934;-88
2022/11/01 12:40:52;;;;;;;;;;;19.50;99.90;;;;;;5111199;28;19935;-87
2022/11/01 12:43:21;;;;;;;;;;;19.60;99.90;;;;;;5113782;28;20015;-87
2022/11/01 12:45:57;;;;;;;;;;;19.60;99.90;;;;;;5110811;28;19927;-86
2022/11/01 12:48:27;;;;;;;;;;;19.60;99.90;;;;;;5112072;28;19924;-86
2022/11/01 12:50:58;;;;;;;;;;;19.70;99.90;;;;;;5088061;28;19977;-87
2022/11/01 12:53:28;;;;;;;;;;;19.60;99.90;;;;;;5110570;28;19950;-88
2022/11/01 12:56:01;;;;;;;;;;;19.60;99.90;;;;;;5117274;28;19934;-88
2022/11/01 12:58:29;;;;;;;;;;;19.50;99.90;;;;;;5098304;28;19931;-88
2022/11/01 13:01:04;;;;;;;;;;;19.40;99.90;;;;;;5086270;28;19935;-88
2022/11/01 13:03:40;;;;;;;;;;;19.30;99.90;;;;;;5124088;28;19931;-88
2022/11/01 13:06:13;;;;;;;;;;;19.30;99.90;;;;;;5109119;28;20621;-87
2022/11/01 13:08:45;;;;;;;;;;;19.10;99.90;;;;;;5079788;28;19939;-87
2022/11/01 13:11:16;;;;;;;;;;;19.10;99.90;;;;;;5089903;28;20297;-87
2022/11/01 13:13:47;;;;;;;;;;;19.00;99.90;;;;;;5092705;28;19939;-87
2022/11/01 13:16:16;;;;;;;;;;;19.00;99.90;;;;;;5099025;28;19989;-87
2022/11/01 13:18:47;;;;;;;;;;;18.90;99.90;;;;;;5107492;28;19989;-86
2022/11/01 13:21:25;;;;;;;;;;;19.00;99.90;;;;;;5107951;28;19934;-87
2022/11/01 13:23:57;;;;;;;;;;;18.90;99.90;;;;;;5104153;28;19928;-87
2022/11/01 13:26:25;;;;;;;;;;;18.90;99.90;;;;;;5105113;28;19953;-87
2022/11/01 13:29:00;;;;;;;;;;;19.00;99.90;;;;;;5091975;28;19927;-87
2022/11/01 13:31:30;;;;;;;;;;;19.00;99.90;;;;;;5112630;27;19930;-88
2022/11/01 13:34:03;;;;;;;;;;;19.00;99.90;;;;;;5094027;28;19928;-88
2022/11/01 13:36:33;;;;;;;;;;;18.90;99.90;;;;;;5099355;28;19938;-87
2022/11/01 13:39:04;;;;;;;;;;;18.70;99.90;;;;;;5114549;28;19936;-87
2022/11/01 13:41:35;;;;;;;;;;;18.70;99.90;;;;;;5091596;28;20010;-87
2022/11/01 13:44:05;;;;;;;;;;;18.60;99.90;;;;;;5084755;28;19924;-86
2022/11/01 13:46:37;;;;;;;;;;;18.60;99.90;;;;;;5084203;28;19977;-86
2022/11/01 13:49:28;;;;;;;;;;;18.50;99.90;;;;;;5101340;28;19924;-88
2022/11/01 13:52:00;;;;;;;;;;;18.50;99.90;;;;;;5095785;28;19931;-87
2022/11/01 13:54:30;;;;;;;;;;;18.50;99.90;;;;;;5085785;28;19935;-87
2022/11/01 13:56:58;;;;;;;;;;;18.50;99.90;;;;;;5108794;28;19924;-88
2022/11/01 13:59:30;;;;;;;;;;;18.40;99.90;;;;;;5090358;28;19936;-86
2022/11/01 14:02:22;;;;;;;;;;;16.80;99.90;;;;;;5097502;28;19927;-88
2022/11/01 14:04:56;;;;;;;;;;;18.30;99.90;;;;;;5090382;28;19946;-88
2022/11/01 14:07:23;;;;;;;;;;;18.30;99.90;;;;;;5094553;28;19930;-86
2022/11/01 14:09:50;;;;;;;;;;;18.20;99.90;;;;;;5115407;28;19958;-86
2022/11/01 14:12:42;;;;;;;;;;;18.10;99.90;;;;;;5096443;28;19939;-86
2022/11/01 14:15:17;;;;;;;;;;;18.00;99.90;;;;;;5058059;28;20013;-85
2022/11/01 14:17:55;;;;;;;;;;;17.90;99.90;;;;;;5114071;28;19927;-85
2022/11/01 14:20:53;;;;;;;;;;;17.90;99.90;;;;;;5104659;28;19928;-85
2022/11/01 14:23:35;;;;;;;;;;;17.80;99.90;;;;;;5090035;28;19942;-85
2022/11/01 14:26:21;;;;;;;;;;;17.80;99.90;;;;;;5081594;28;19924;-84
2022/11/01 14:28:50;;;;;;;;;;;17.60;99.90;;;;;;5086709;28;19935;-85
2022/11/01 14:31:18;;;;;;;;;;;17.60;99.90;;;;;;5081450;28;19928;-85
2022/11/01 14:33:47;;;;;;;;;;;17.50;99.90;;;;;;5104482;28;19935;-84
2022/11/01 14:36:15;;;;;;;;;;;17.40;99.90;;;;;;5109631;28;19923;-85